createdAt,value
2018-11-26T00:00:12.327Z,21.20
2018-11-26T00:01:12.373Z,21.30
2018-11-26T00:02:12.397Z,21.70
2018-11-26T00:03:12.432Z,22.20
2018-11-26T00:04:12.472Z,22.40
2018-11-26T00:05:12.511Z,21.20
2018-11-26T00:06:12.553Z,21.70
2018-11-26T00:07:12.585Z,21.00
2018-11-26T00:08:12.628Z,20.60
2018-11-26T00:09:12.661Z,20.30
2018-11-26T00:10:12.709Z,21.40
2018-11-26T00:11:12.730Z,21.80
2018-11-26T00:12:12.768Z,21.50
2018-11-26T00:13:12.812Z,20.50
2018-11-26T00:14:12.843Z,21.20
2018-11-26T00:15:12.879Z,20.00
2018-11-26T00:16:12.917Z,21.00
2018-11-26T00:17:12.956Z,20.70
2018-11-26T00:18:12.996Z,21.20
2018-11-26T00:19:13.028Z,21.00
2018-11-26T00:20:13.068Z,20.50
2018-11-26T00:21:13.107Z,21.00
2018-11-26T00:22:13.144Z,21.30
2018-11-26T00:23:13.178Z,21.20
2018-11-26T00:24:13.219Z,21.30
2018-11-26T00:25:13.258Z,22.60
2018-11-26T00:26:13.294Z,21.30
2018-11-26T00:27:13.335Z,21.30
2018-11-26T00:28:13.364Z,22.40
2018-11-26T00:29:13.403Z,22.50
2018-11-26T00:30:13.445Z,22.20
2018-11-26T00:31:13.834Z,22.30
2018-11-26T00:32:13.521Z,22.50
2018-11-26T00:33:13.565Z,22.40
2018-11-26T00:34:13.592Z,23.40
2018-11-26T00:35:13.626Z,21.50
2018-11-26T00:36:13.663Z,22.50
2018-11-26T00:37:13.701Z,22.30
2018-11-26T00:38:13.740Z,22.70
2018-11-26T00:39:13.775Z,22.60
2018-11-26T00:40:13.812Z,24.00
2018-11-26T00:41:13.952Z,22.10
2018-11-26T00:42:13.897Z,22.70
2018-11-26T00:43:13.928Z,22.50
2018-11-26T00:44:13.962Z,22.70
2018-11-26T00:45:13.998Z,22.90
2018-11-26T00:46:14.035Z,22.90
2018-11-26T00:47:14.072Z,22.50
2018-11-26T00:48:14.119Z,22.50
2018-11-26T00:49:14.147Z,23.50
2018-11-26T00:50:14.196Z,25.10
2018-11-26T00:51:14.221Z,24.90
2018-11-26T00:52:14.258Z,24.30
2018-11-26T00:53:14.295Z,24.60
2018-11-26T00:54:14.334Z,24.60
2018-11-26T00:55:14.373Z,24.20
2018-11-26T00:56:14.406Z,26.60
2018-11-26T00:57:14.445Z,26.00
2018-11-26T00:58:14.482Z,24.70
2018-11-26T00:59:14.531Z,25.40
2018-11-26T01:00:14.657Z,24.60
2018-11-26T01:01:14.592Z,25.50
2018-11-26T01:02:14.636Z,25.60
2018-11-26T01:03:14.666Z,25.50
2018-11-26T01:04:14.703Z,25.20
2018-11-26T01:05:14.741Z,26.50
2018-11-26T01:06:14.782Z,26.50
2018-11-26T01:07:14.856Z,25.70
2018-11-26T01:08:14.854Z,24.60
2018-11-26T01:09:14.891Z,25.60
2018-11-26T01:10:14.927Z,26.00
2018-11-26T01:11:14.972Z,26.70
2018-11-26T01:12:15.000Z,26.20
2018-11-26T01:13:15.042Z,25.00
2018-11-26T01:14:15.073Z,27.60
2018-11-26T01:15:15.116Z,27.20
2018-11-26T01:16:15.153Z,26.70
2018-11-26T01:17:15.185Z,26.60
2018-11-26T01:18:15.224Z,28.10
2018-11-26T01:19:15.259Z,27.60
2018-11-26T01:20:15.296Z,28.10
2018-11-26T01:21:15.339Z,28.50
2018-11-26T01:22:15.371Z,28.30
2018-11-26T01:23:15.407Z,28.40
2018-11-26T01:24:15.463Z,28.60
2018-11-26T01:25:15.481Z,29.30
2018-11-26T01:26:15.517Z,29.00
2018-11-26T01:27:15.554Z,29.60
2018-11-26T01:28:15.592Z,30.70
2018-11-26T01:29:15.630Z,29.00
2018-11-26T01:30:15.667Z,29.70
2018-11-26T01:31:15.721Z,30.20
2018-11-26T01:32:15.741Z,30.00
2018-11-26T01:33:15.779Z,28.70
2018-11-26T01:34:15.814Z,29.30
2018-11-26T01:35:15.849Z,27.90
2018-11-26T01:36:15.888Z,30.60
2018-11-26T01:37:15.925Z,30.40
2018-11-26T01:38:15.964Z,30.60
2018-11-26T01:39:15.999Z,29.40
2018-11-26T01:40:16.037Z,28.60
2018-11-26T01:41:16.073Z,26.50
2018-11-26T01:42:16.109Z,27.70
2018-11-26T01:43:16.148Z,27.60
2018-11-26T01:44:16.184Z,27.30
2018-11-26T01:45:16.239Z,25.70
2018-11-26T01:46:16.259Z,27.40
2018-11-26T01:47:16.294Z,26.10
2018-11-26T01:48:16.331Z,25.60
2018-11-26T01:49:16.368Z,26.70
2018-11-26T01:50:16.405Z,26.20
2018-11-26T01:51:16.440Z,26.50
2018-11-26T01:52:16.482Z,25.70
2018-11-26T01:53:16.515Z,25.10
2018-11-26T01:54:16.552Z,25.90
2018-11-26T01:55:16.588Z,27.10
2018-11-26T01:56:16.628Z,24.20
2018-11-26T01:57:16.663Z,25.30
2018-11-26T01:58:16.700Z,24.30
2018-11-26T01:59:16.737Z,23.90
2018-11-26T02:00:16.776Z,23.70
2018-11-26T02:01:16.811Z,25.10
2018-11-26T02:02:16.849Z,23.40
2018-11-26T02:03:16.886Z,24.20
2018-11-26T02:04:16.923Z,25.20
2018-11-26T02:05:16.958Z,24.40
2018-11-26T02:06:16.995Z,26.50
2018-11-26T02:07:17.039Z,25.80
2018-11-26T02:08:17.068Z,25.30
2018-11-26T02:09:17.104Z,25.10
2018-11-26T02:10:17.145Z,24.80
2018-11-26T02:11:17.178Z,25.30
2018-11-26T02:12:17.217Z,24.90
2018-11-26T02:13:17.254Z,25.10
2018-11-26T02:14:17.291Z,23.50
2018-11-26T02:15:17.328Z,23.40
2018-11-26T02:16:17.368Z,22.90
2018-11-26T02:17:17.401Z,23.10
2018-11-26T02:18:17.436Z,22.30
2018-11-26T02:19:17.477Z,23.00
2018-11-26T02:20:17.511Z,23.60
2018-11-26T02:21:17.549Z,22.10
2018-11-26T02:22:17.585Z,22.70
2018-11-26T02:23:17.622Z,22.50
2018-11-26T02:24:17.661Z,24.30
2018-11-26T02:25:17.699Z,23.20
2018-11-26T02:26:17.732Z,21.70
2018-11-26T02:27:17.780Z,23.60
2018-11-26T02:28:17.811Z,21.40
2018-11-26T02:29:17.848Z,21.40
2018-11-26T02:30:17.882Z,19.90
2018-11-26T02:31:17.917Z,20.90
2018-11-26T02:32:17.958Z,20.00
2018-11-26T02:33:17.994Z,21.30
2018-11-26T02:34:18.038Z,21.60
2018-11-26T02:35:18.071Z,21.30
2018-11-26T02:36:18.104Z,21.90
2018-11-26T02:37:18.144Z,21.20
2018-11-26T02:38:18.178Z,20.80
2018-11-26T02:39:18.216Z,20.50
2018-11-26T02:40:18.257Z,19.00
2018-11-26T02:41:18.297Z,19.90
2018-11-26T02:42:18.328Z,19.90
2018-11-26T02:43:18.364Z,19.60
2018-11-26T02:44:18.401Z,20.80
2018-11-26T02:45:18.458Z,19.70
2018-11-26T02:46:18.476Z,19.30
2018-11-26T02:47:18.516Z,20.10
2018-11-26T02:48:18.548Z,19.70
2018-11-26T02:49:18.586Z,20.90
2018-11-26T02:50:18.625Z,20.40
2018-11-26T02:51:18.660Z,20.70
2018-11-26T02:52:18.697Z,21.30
2018-11-26T02:53:18.737Z,21.20
2018-11-26T02:54:18.770Z,21.20
2018-11-26T02:55:19.001Z,20.30
2018-11-26T02:56:18.843Z,19.20
2018-11-26T02:57:18.882Z,19.20
2018-11-26T02:58:18.919Z,18.90
2018-11-26T02:59:18.958Z,18.60
2018-11-26T03:00:18.999Z,18.70
2018-11-26T03:01:19.039Z,19.40
2018-11-26T03:02:19.168Z,19.30
2018-11-26T03:03:19.105Z,19.30
2018-11-26T03:04:19.150Z,19.00
2018-11-26T03:05:19.179Z,19.00
2018-11-26T03:06:19.216Z,19.30
2018-11-26T03:07:19.255Z,18.60
2018-11-26T03:08:19.289Z,19.00
2018-11-26T03:09:19.331Z,18.60
2018-11-26T03:10:19.370Z,18.80
2018-11-26T03:11:19.411Z,17.60
2018-11-26T03:12:19.439Z,17.70
2018-11-26T03:13:19.476Z,17.70
2018-11-26T03:14:19.513Z,17.90
2018-11-26T03:15:19.550Z,18.90
2018-11-26T03:16:19.586Z,18.50
2018-11-26T03:17:19.624Z,18.00
2018-11-26T03:18:19.662Z,18.00
2018-11-26T03:19:19.699Z,18.80
2018-11-26T03:20:19.744Z,18.10
2018-11-26T03:21:19.773Z,17.20
2018-11-26T03:22:19.811Z,18.00
2018-11-26T03:23:19.845Z,18.80
2018-11-26T03:24:19.892Z,18.50
2018-11-26T03:25:19.928Z,18.80
2018-11-26T03:26:19.958Z,17.60
2018-11-26T03:27:19.993Z,19.00
2018-11-26T03:28:20.036Z,18.50
2018-11-26T03:29:20.069Z,18.40
2018-11-26T03:30:20.106Z,18.60
2018-11-26T03:31:20.143Z,18.80
2018-11-26T03:32:20.188Z,19.50
2018-11-26T03:33:20.222Z,18.80
2018-11-26T03:34:20.261Z,18.90
2018-11-26T03:35:20.296Z,18.80
2018-11-26T03:36:20.327Z,19.70
2018-11-26T03:37:20.365Z,19.40
2018-11-26T03:38:20.412Z,19.60
2018-11-26T03:39:20.441Z,19.70
2018-11-26T03:40:20.477Z,19.60
2018-11-26T03:41:20.516Z,19.90
2018-11-26T03:42:20.551Z,20.00
2018-11-26T03:43:20.592Z,19.50
2018-11-26T03:44:20.625Z,19.90
2018-11-26T03:45:20.663Z,20.00
2018-11-26T03:46:20.699Z,21.00
2018-11-26T03:47:20.736Z,20.90
2018-11-26T03:48:20.776Z,20.40
2018-11-26T03:49:20.814Z,21.20
2018-11-26T03:50:20.848Z,22.30
2018-11-26T03:51:20.910Z,22.20
2018-11-26T03:52:20.922Z,21.40
2018-11-26T03:53:20.972Z,22.40
2018-11-26T03:54:20.999Z,22.10
2018-11-26T03:55:21.136Z,22.60
2018-11-26T03:56:21.073Z,22.40
2018-11-26T03:57:21.109Z,23.70
2018-11-26T03:58:21.147Z,22.60
2018-11-26T03:59:21.182Z,22.70
2018-11-26T04:00:21.221Z,23.60
2018-11-26T04:01:21.258Z,23.00
2018-11-26T04:02:21.298Z,23.60
2018-11-26T04:03:21.335Z,23.20
2018-11-26T04:04:21.369Z,23.20
2018-11-26T04:05:21.406Z,24.00
2018-11-26T04:06:21.444Z,24.00
2018-11-26T04:07:21.481Z,24.80
2018-11-26T04:08:21.519Z,24.80
2018-11-26T04:09:21.557Z,24.10
2018-11-26T04:10:21.601Z,24.60
2018-11-26T04:11:21.632Z,23.70
2018-11-26T04:12:21.667Z,24.60
2018-11-26T04:13:21.704Z,24.80
2018-11-26T04:14:21.743Z,25.20
2018-11-26T04:15:21.778Z,25.20
2018-11-26T04:16:21.819Z,26.40
2018-11-26T04:17:21.853Z,25.90
2018-11-26T04:18:21.890Z,26.30
2018-11-26T04:19:21.927Z,26.60
2018-11-26T04:20:21.965Z,26.50
2018-11-26T04:21:22.004Z,25.70
2018-11-26T04:22:22.038Z,27.50
2018-11-26T04:23:22.076Z,26.80
2018-11-26T04:24:22.118Z,26.00
2018-11-26T04:25:22.151Z,26.50
2018-11-26T04:26:22.189Z,26.80
2018-11-26T04:27:22.230Z,25.40
2018-11-26T04:28:22.273Z,25.80
2018-11-26T04:29:22.300Z,25.80
2018-11-26T04:30:22.336Z,27.00
2018-11-26T04:31:22.521Z,26.50
2018-11-26T04:32:22.411Z,26.20
2018-11-26T04:33:22.449Z,27.30
2018-11-26T04:34:22.486Z,26.80
2018-11-26T04:35:22.522Z,27.80
2018-11-26T04:36:22.567Z,27.60
2018-11-26T04:37:22.596Z,26.70
2018-11-26T04:38:22.645Z,26.50
2018-11-26T04:39:22.670Z,25.60
2018-11-26T04:40:22.755Z,25.80
2018-11-26T04:41:22.745Z,26.70
2018-11-26T04:42:22.781Z,24.00
2018-11-26T04:43:22.818Z,25.60
2018-11-26T04:44:22.855Z,25.80
2018-11-26T04:45:22.893Z,25.20
2018-11-26T04:46:22.930Z,24.30
2018-11-26T04:47:22.967Z,27.30
2018-11-26T04:48:23.006Z,25.00
2018-11-26T04:49:23.049Z,24.60
2018-11-26T04:50:23.083Z,24.60
2018-11-26T04:51:23.115Z,25.60
2018-11-26T04:52:23.251Z,26.00
2018-11-26T04:53:23.191Z,26.20
2018-11-26T04:54:23.227Z,25.20
2018-11-26T04:55:23.265Z,25.70
2018-11-26T04:56:23.301Z,26.00
2018-11-26T04:57:23.340Z,26.40
2018-11-26T04:58:23.388Z,25.90
2018-11-26T04:59:23.414Z,26.40
2018-11-26T05:00:23.508Z,26.10
2018-11-26T05:01:23.492Z,26.40
2018-11-26T05:02:23.525Z,26.50
2018-11-26T05:03:23.563Z,25.20
2018-11-26T05:04:23.751Z,25.60
2018-11-26T05:05:23.636Z,26.70
2018-11-26T05:06:23.679Z,27.00
2018-11-26T05:07:23.713Z,25.70
2018-11-26T05:08:23.748Z,25.80
2018-11-26T05:09:23.785Z,27.60
2018-11-26T05:10:23.822Z,27.30
2018-11-26T05:11:23.860Z,26.60
2018-11-26T05:12:23.899Z,26.70
2018-11-26T05:13:23.935Z,28.10
2018-11-26T05:14:23.971Z,26.40
2018-11-26T05:15:24.010Z,27.00
2018-11-26T05:16:24.045Z,26.50
2018-11-26T05:17:24.083Z,25.00
2018-11-26T05:18:24.120Z,26.10
2018-11-26T05:19:24.158Z,26.20
2018-11-26T05:20:24.192Z,26.20
2018-11-26T05:21:24.241Z,26.40
2018-11-26T05:22:24.267Z,25.20
2018-11-26T05:23:24.307Z,25.20
2018-11-26T05:24:24.347Z,25.40
2018-11-26T05:25:24.381Z,23.90
2018-11-26T05:26:24.418Z,24.50
2018-11-26T05:27:24.453Z,25.20
2018-11-26T05:28:24.491Z,26.00
2018-11-26T05:29:24.527Z,23.60
2018-11-26T05:30:24.565Z,25.40
2018-11-26T05:31:24.601Z,24.30
2018-11-26T05:32:24.639Z,24.60
2018-11-26T05:33:24.676Z,22.80
2018-11-26T05:34:24.715Z,24.30
2018-11-26T05:35:24.750Z,25.60
2018-11-26T05:36:24.786Z,25.50
2018-11-26T05:37:24.823Z,23.20
2018-11-26T05:38:24.861Z,24.40
2018-11-26T05:39:24.901Z,23.70
2018-11-26T05:40:24.983Z,25.10
2018-11-26T05:41:24.978Z,24.50
2018-11-26T05:42:28.783Z,26.20
2018-11-26T05:43:25.044Z,24.50
2018-11-26T05:44:25.081Z,25.00
2018-11-26T05:45:25.120Z,25.30
2018-11-26T05:46:25.156Z,24.40
2018-11-26T05:47:25.192Z,24.50
2018-11-26T05:48:25.229Z,24.80
2018-11-26T05:49:25.266Z,23.10
2018-11-26T05:50:25.305Z,23.60
2018-11-26T05:51:25.340Z,23.00
2018-11-26T05:52:25.377Z,22.90
2018-11-26T05:53:25.418Z,24.20
2018-11-26T05:54:25.452Z,24.20
2018-11-26T05:55:25.489Z,23.80
2018-11-26T05:56:25.532Z,23.80
2018-11-26T05:57:25.561Z,22.50
2018-11-26T05:58:25.598Z,21.40
2018-11-26T05:59:25.642Z,21.70
2018-11-26T06:00:25.671Z,22.10
2018-11-26T06:01:25.715Z,21.50
2018-11-26T06:02:25.748Z,21.60
2018-11-26T06:03:25.786Z,21.80
2018-11-26T06:04:25.818Z,21.70
2018-11-26T06:05:25.855Z,23.00
2018-11-26T06:06:25.894Z,22.10
2018-11-26T06:07:25.936Z,22.20
2018-11-26T06:08:25.971Z,21.80
2018-11-26T06:09:26.005Z,21.00
2018-11-26T06:10:26.072Z,22.60
2018-11-26T06:11:26.075Z,21.90
2018-11-26T06:12:26.112Z,20.60
2018-11-26T06:13:26.151Z,20.70
2018-11-26T06:14:26.189Z,21.90
2018-11-26T06:15:26.224Z,21.40
2018-11-26T06:16:26.260Z,21.70
2018-11-26T06:17:26.297Z,20.80
2018-11-26T06:18:26.335Z,22.40
2018-11-26T06:19:26.369Z,22.10
2018-11-26T06:20:26.408Z,22.80
2018-11-26T06:21:26.445Z,23.10
2018-11-26T06:22:26.487Z,20.10
2018-11-26T06:23:26.572Z,22.40
2018-11-26T06:24:26.554Z,22.10
2018-11-26T06:25:26.599Z,20.00
2018-11-26T06:26:26.630Z,18.40
2018-11-26T06:27:26.667Z,19.70
2018-11-26T06:28:26.702Z,15.80
2018-11-26T06:29:26.739Z,16.30
2018-11-26T06:30:26.779Z,17.00
2018-11-26T06:31:26.813Z,16.70
2018-11-26T06:32:26.851Z,16.70
2018-11-26T06:33:26.958Z,16.60
2018-11-26T06:34:26.925Z,15.70
2018-11-26T06:35:26.993Z,16.50
2018-11-26T06:36:27.016Z,17.20
2018-11-26T06:37:27.241Z,15.80
2018-11-26T06:38:27.071Z,16.20
2018-11-26T06:39:27.107Z,17.20
2018-11-26T06:40:27.405Z,16.30
2018-11-26T06:41:27.190Z,16.20
2018-11-26T06:42:27.337Z,16.80
2018-11-26T06:43:27.272Z,16.40
2018-11-26T06:44:27.295Z,16.50
2018-11-26T06:45:27.330Z,15.60
2018-11-26T06:46:27.372Z,16.10
2018-11-26T06:47:27.417Z,16.00
2018-11-26T06:48:27.437Z,16.40
2018-11-26T06:49:27.473Z,16.10
2018-11-26T06:50:27.516Z,15.30
2018-11-26T06:51:27.553Z,16.50
2018-11-26T06:52:27.584Z,16.20
2018-11-26T06:53:27.629Z,16.30
2018-11-26T06:54:27.660Z,16.40
2018-11-26T06:55:27.695Z,17.20
2018-11-26T06:56:27.733Z,16.00
2018-11-26T06:57:27.768Z,17.10
2018-11-26T06:58:27.805Z,16.80
2018-11-26T06:59:27.844Z,16.60
2018-11-26T07:00:27.878Z,16.40
2018-11-26T07:01:27.920Z,15.80
2018-11-26T07:02:27.954Z,17.20
2018-11-26T07:03:27.989Z,16.20
2018-11-26T07:04:28.027Z,17.30
2018-11-26T07:05:28.072Z,16.30
2018-11-26T07:06:28.104Z,17.10
2018-11-26T07:07:28.143Z,17.00
2018-11-26T07:08:28.172Z,17.60
2018-11-26T07:09:28.222Z,17.30
2018-11-26T07:10:28.245Z,17.30
2018-11-26T07:11:28.284Z,16.40
2018-11-26T07:12:28.327Z,17.50
2018-11-26T07:13:28.367Z,17.60
2018-11-26T07:14:28.404Z,17.50
2018-11-26T07:15:28.429Z,16.20
2018-11-26T07:16:28.475Z,16.50
2018-11-26T07:17:28.502Z,16.70
2018-11-26T07:18:28.541Z,16.80
2018-11-26T07:19:28.577Z,16.20
2018-11-26T07:20:28.620Z,16.50
2018-11-26T07:21:28.665Z,17.30
2018-11-26T07:22:28.686Z,16.90
2018-11-26T07:23:28.723Z,16.80
2018-11-26T07:24:28.763Z,16.50
2018-11-26T07:25:28.797Z,16.90
2018-11-26T07:26:28.835Z,17.70
2018-11-26T07:27:28.872Z,17.40
2018-11-26T07:28:28.907Z,17.50
2018-11-26T07:29:28.952Z,17.60
2018-11-26T07:30:28.984Z,18.20
2018-11-26T07:31:29.025Z,17.70
2018-11-26T07:32:29.054Z,18.20
2018-11-26T07:33:29.092Z,17.20
2018-11-26T07:34:29.130Z,18.30
2018-11-26T07:35:29.163Z,17.90
2018-11-26T07:36:29.202Z,19.00
2018-11-26T07:37:29.247Z,18.50
2018-11-26T07:38:29.276Z,17.10
2018-11-26T07:39:29.312Z,17.90
2018-11-26T07:40:29.352Z,18.40
2018-11-26T07:41:29.392Z,17.90
2018-11-26T07:42:29.434Z,17.60
2018-11-26T07:43:29.460Z,17.90
2018-11-26T07:44:29.497Z,18.20
2018-11-26T07:45:29.533Z,17.80
2018-11-26T07:46:29.601Z,17.30
2018-11-26T07:47:29.605Z,17.40
2018-11-26T07:48:29.645Z,17.20
2018-11-26T07:49:29.683Z,16.50
2018-11-26T07:50:29.716Z,17.30
2018-11-26T07:51:29.752Z,17.60
2018-11-26T07:52:29.789Z,19.50
2018-11-26T07:53:29.828Z,18.70
2018-11-26T07:54:29.876Z,18.30
2018-11-26T07:55:30.152Z,17.50
2018-11-26T07:56:29.945Z,17.90
2018-11-26T07:57:29.976Z,17.50
2018-11-26T07:58:30.016Z,16.40
2018-11-26T07:59:30.056Z,18.10
2018-11-26T08:00:30.089Z,18.20
2018-11-26T08:01:30.123Z,18.70
2018-11-26T08:02:30.158Z,18.50
2018-11-26T08:03:30.196Z,18.10
2018-11-26T08:04:30.235Z,17.80
2018-11-26T08:05:30.269Z,16.60
2018-11-26T08:06:30.313Z,18.10
2018-11-26T08:07:30.345Z,18.70
2018-11-26T08:08:30.381Z,17.60
2018-11-26T08:09:30.417Z,19.90
2018-11-26T08:10:30.455Z,19.80
2018-11-26T08:11:30.495Z,18.70
2018-11-26T08:12:30.526Z,18.80
2018-11-26T08:13:30.564Z,19.00
2018-11-26T08:14:30.602Z,19.70
2018-11-26T08:15:30.636Z,19.80
2018-11-26T08:16:30.690Z,18.90
2018-11-26T08:17:30.711Z,20.50
2018-11-26T08:18:30.746Z,19.40
2018-11-26T08:19:30.786Z,18.50
2018-11-26T08:20:30.821Z,18.90
2018-11-26T08:21:30.860Z,19.90
2018-11-26T08:22:30.904Z,18.50
2018-11-26T08:23:30.932Z,18.40
2018-11-26T08:24:30.969Z,19.50
2018-11-26T08:25:31.004Z,18.90
2018-11-26T08:26:31.051Z,18.90
2018-11-26T08:27:31.077Z,20.10
2018-11-26T08:28:31.113Z,20.90
2018-11-26T08:29:31.151Z,20.40
2018-11-26T08:30:31.189Z,18.10
2018-11-26T08:31:31.224Z,19.50
2018-11-26T08:32:34.101Z,19.60
2018-11-26T08:33:31.304Z,20.20
2018-11-26T08:34:31.338Z,19.90
2018-11-26T08:35:31.597Z,20.00
2018-11-26T08:36:31.409Z,20.30
2018-11-26T08:37:31.504Z,20.20
2018-11-26T08:38:31.538Z,19.70
2018-11-26T08:39:31.519Z,20.10
2018-11-26T08:40:31.554Z,20.40
2018-11-26T08:41:31.597Z,21.00
2018-11-26T08:42:31.630Z,19.80
2018-11-26T08:43:31.674Z,19.70
2018-11-26T08:44:31.703Z,21.00
2018-11-26T08:45:31.840Z,21.60
2018-11-26T08:46:31.781Z,20.30
2018-11-26T08:47:31.814Z,22.30
2018-11-26T08:48:31.850Z,22.60
2018-11-26T08:49:31.885Z,21.00
2018-11-26T08:50:31.925Z,20.00
2018-11-26T08:51:31.960Z,21.30
2018-11-26T08:52:31.995Z,20.10
2018-11-26T08:53:32.034Z,20.80
2018-11-26T08:54:32.083Z,21.10
2018-11-26T08:55:32.148Z,21.20
2018-11-26T08:56:32.143Z,20.50
2018-11-26T08:57:32.180Z,21.40
2018-11-26T08:58:32.223Z,21.00
2018-11-26T08:59:32.253Z,21.80
2018-11-26T09:00:32.291Z,22.20
2018-11-26T09:01:32.336Z,22.30
2018-11-26T09:02:32.372Z,22.50
2018-11-26T09:03:32.400Z,22.90
2018-11-26T09:04:32.445Z,22.20
2018-11-26T09:05:32.474Z,22.00
2018-11-26T09:06:32.513Z,22.00
2018-11-26T09:07:32.548Z,22.50
2018-11-26T09:08:32.590Z,23.30
2018-11-26T09:09:33.015Z,22.40
2018-11-26T09:10:32.659Z,23.20
2018-11-26T09:11:32.708Z,22.90
2018-11-26T09:12:32.740Z,24.30
2018-11-26T09:13:32.784Z,22.10
2018-11-26T09:14:32.805Z,23.20
2018-11-26T09:15:32.851Z,24.30
2018-11-26T09:16:32.879Z,22.90
2018-11-26T09:17:32.929Z,23.00
2018-11-26T09:18:32.953Z,23.90
2018-11-26T09:19:32.999Z,24.90
2018-11-26T09:20:33.027Z,24.70
2018-11-26T09:21:33.075Z,25.10
2018-11-26T09:22:33.106Z,23.40
2018-11-26T09:23:33.138Z,24.00
2018-11-26T09:24:33.173Z,25.00
2018-11-26T09:25:33.210Z,24.30
2018-11-26T09:26:33.248Z,24.60
2018-11-26T09:27:33.284Z,24.90
2018-11-26T09:28:33.322Z,24.50
2018-11-26T09:29:33.358Z,23.90
2018-11-26T09:30:33.394Z,25.20
2018-11-26T09:31:33.431Z,24.90
2018-11-26T09:32:33.468Z,25.70
2018-11-26T09:33:33.505Z,24.70
2018-11-26T09:34:33.544Z,24.60
2018-11-26T09:35:33.579Z,24.20
2018-11-26T09:36:33.624Z,25.40
2018-11-26T09:37:33.656Z,26.10
2018-11-26T09:38:33.692Z,25.70
2018-11-26T09:39:33.726Z,25.30
2018-11-26T09:40:33.765Z,26.00
2018-11-26T09:41:33.799Z,24.20
2018-11-26T09:42:33.837Z,24.80
2018-11-26T09:43:33.874Z,25.00
2018-11-26T09:44:33.911Z,24.50
2018-11-26T09:45:40.080Z,24.30
2018-11-26T09:46:33.988Z,23.70
2018-11-26T09:47:34.024Z,22.40
2018-11-26T09:48:34.063Z,24.10
2018-11-26T09:49:34.101Z,24.10
2018-11-26T09:50:34.143Z,24.20
2018-11-26T09:51:41.747Z,25.00
2018-11-26T09:52:34.208Z,24.30
2018-11-26T09:53:34.243Z,25.70
2018-11-26T09:54:34.285Z,25.60
2018-11-26T09:55:34.326Z,26.60
2018-11-26T09:56:34.355Z,25.80
2018-11-26T09:57:34.390Z,26.10
2018-11-26T09:58:34.434Z,26.40
2018-11-26T09:59:34.465Z,26.80
2018-11-26T10:00:34.502Z,26.00
2018-11-26T10:01:34.537Z,25.80
2018-11-26T10:02:34.575Z,24.70
2018-11-26T10:03:34.616Z,24.70
2018-11-26T10:04:34.650Z,27.00
2018-11-26T10:05:34.690Z,25.40
2018-11-26T10:06:34.736Z,25.20
2018-11-26T10:07:34.803Z,25.20
2018-11-26T10:08:34.797Z,24.90
2018-11-26T10:09:34.867Z,24.70
2018-11-26T10:10:34.871Z,25.10
2018-11-26T10:11:35.068Z,25.30
2018-11-26T10:12:34.956Z,24.20
2018-11-26T10:13:34.983Z,26.30
2018-11-26T10:14:35.018Z,25.60
2018-11-26T10:15:35.054Z,25.50
2018-11-26T10:16:35.103Z,26.30
2018-11-26T10:17:35.132Z,26.00
2018-11-26T10:18:35.165Z,26.30
2018-11-26T10:19:35.211Z,25.80
2018-11-26T10:20:35.242Z,25.00
2018-11-26T10:21:35.276Z,25.90
2018-11-26T10:22:35.315Z,26.20
2018-11-26T10:23:35.349Z,26.70
2018-11-26T10:24:35.398Z,27.40
2018-11-26T10:25:35.423Z,27.40
2018-11-26T10:26:35.460Z,25.60
2018-11-26T10:27:35.495Z,26.70
2018-11-26T10:28:35.535Z,27.40
2018-11-26T10:29:35.571Z,26.30
2018-11-26T10:30:35.658Z,27.10
2018-11-26T10:31:35.665Z,26.50
2018-11-26T10:32:35.682Z,26.70
2018-11-26T10:33:35.723Z,25.50
2018-11-26T10:34:35.755Z,27.00
2018-11-26T10:35:35.797Z,26.60
2018-11-26T10:36:35.826Z,25.90
2018-11-26T10:37:35.873Z,26.10
2018-11-26T10:38:35.907Z,25.90
2018-11-26T10:39:35.936Z,25.60
2018-11-26T10:40:35.974Z,26.50
2018-11-26T10:41:36.013Z,26.50
2018-11-26T10:42:36.056Z,25.60
2018-11-26T10:43:36.087Z,26.50
2018-11-26T10:44:36.121Z,27.20
2018-11-26T10:45:36.162Z,27.40
2018-11-26T10:46:36.197Z,25.80
2018-11-26T10:47:36.232Z,27.50
2018-11-26T10:48:36.271Z,27.80
2018-11-26T10:49:36.306Z,25.60
2018-11-26T10:50:36.348Z,25.90
2018-11-26T10:51:36.387Z,25.80
2018-11-26T10:52:36.519Z,26.70
2018-11-26T10:53:36.457Z,25.50
2018-11-26T10:54:36.499Z,26.20
2018-11-26T10:55:36.536Z,26.50
2018-11-26T10:56:36.566Z,27.10
2018-11-26T10:57:36.605Z,26.60
2018-11-26T10:58:36.640Z,25.50
2018-11-26T10:59:36.679Z,26.50
2018-11-26T11:00:36.717Z,24.70
2018-11-26T11:01:36.749Z,26.10
2018-11-26T11:02:36.789Z,25.30
2018-11-26T11:03:36.822Z,25.10
2018-11-26T11:04:36.868Z,24.60
2018-11-26T11:05:36.897Z,24.50
2018-11-26T11:06:36.936Z,26.40
2018-11-26T11:07:36.970Z,25.80
2018-11-26T11:08:37.009Z,26.80
2018-11-26T11:09:37.224Z,25.70
2018-11-26T11:10:37.083Z,27.00
2018-11-26T11:11:37.119Z,26.80
2018-11-26T11:12:37.156Z,28.70
2018-11-26T11:13:37.201Z,28.10
2018-11-26T11:14:37.239Z,28.00
2018-11-26T11:15:37.266Z,26.70
2018-11-26T11:16:37.305Z,28.10
2018-11-26T11:17:37.357Z,27.30
2018-11-26T11:18:37.378Z,25.70
2018-11-26T11:19:37.414Z,28.10
2018-11-26T11:20:37.459Z,27.50
2018-11-26T11:21:37.489Z,27.20
2018-11-26T11:22:37.530Z,26.00
2018-11-26T11:23:37.563Z,26.70
2018-11-26T11:24:37.603Z,25.90
2018-11-26T11:25:37.651Z,25.80
2018-11-26T11:26:37.673Z,27.80
2018-11-26T11:27:37.709Z,27.60
2018-11-26T11:28:37.747Z,25.90
2018-11-26T11:29:37.785Z,27.00
2018-11-26T11:30:37.825Z,25.00
2018-11-26T11:31:37.858Z,24.60
2018-11-26T11:32:37.895Z,24.60
2018-11-26T11:33:38.541Z,25.10
2018-11-26T11:34:37.968Z,24.00
2018-11-26T11:35:38.255Z,25.50
2018-11-26T11:36:38.045Z,24.40
2018-11-26T11:37:38.079Z,23.70
2018-11-26T11:38:38.120Z,23.70
2018-11-26T11:39:38.157Z,22.70
2018-11-26T11:40:38.206Z,23.60
2018-11-26T11:41:38.235Z,23.00
2018-11-26T11:42:38.262Z,24.70
2018-11-26T11:43:38.298Z,24.50
2018-11-26T11:44:38.336Z,25.40
2018-11-26T11:45:38.375Z,23.80
2018-11-26T11:46:38.412Z,23.60
2018-11-26T11:47:38.448Z,22.50
2018-11-26T11:48:38.492Z,23.70
2018-11-26T11:49:38.532Z,21.70
2018-11-26T11:50:38.564Z,23.00
2018-11-26T11:51:38.596Z,23.60
2018-11-26T11:52:38.631Z,23.80
2018-11-26T11:53:38.673Z,22.50
2018-11-26T11:54:38.707Z,21.30
2018-11-26T11:55:38.740Z,23.20
2018-11-26T11:56:38.782Z,23.70
2018-11-26T11:57:38.818Z,21.30
2018-11-26T11:58:38.853Z,22.60
2018-11-26T11:59:38.892Z,23.50
2018-11-26T12:00:38.926Z,24.20
2018-11-26T12:01:38.964Z,23.10
2018-11-26T12:02:39.001Z,24.20
2018-11-26T12:03:39.038Z,21.60
2018-11-26T12:04:39.075Z,23.10
2018-11-26T12:05:39.112Z,23.90
2018-11-26T12:06:39.148Z,23.90
2018-11-26T12:07:39.183Z,23.30
2018-11-26T12:08:39.219Z,23.50
2018-11-26T12:09:39.256Z,23.10
2018-11-26T12:10:39.305Z,23.70
2018-11-26T12:11:39.532Z,23.30
2018-11-26T12:12:39.370Z,23.80
2018-11-26T12:13:39.404Z,23.50
2018-11-26T12:14:39.441Z,23.60
2018-11-26T12:15:39.479Z,24.70
2018-11-26T12:16:39.519Z,24.60
2018-11-26T12:17:39.556Z,25.30
2018-11-26T12:18:39.589Z,26.00
2018-11-26T12:19:39.626Z,25.40
2018-11-26T12:20:39.743Z,26.70
2018-11-26T12:21:39.705Z,27.60
2018-11-26T12:22:39.739Z,27.50
2018-11-26T12:23:39.780Z,26.50
2018-11-26T12:24:39.811Z,27.30
2018-11-26T12:25:39.856Z,26.80
2018-11-26T12:26:39.951Z,27.60
2018-11-26T12:27:39.925Z,27.50
2018-11-26T12:28:39.957Z,28.10
2018-11-26T12:29:39.995Z,27.40
2018-11-26T12:30:40.040Z,27.90
2018-11-26T12:31:40.069Z,28.40
2018-11-26T12:32:40.108Z,27.50
2018-11-26T12:33:40.151Z,26.60
2018-11-26T12:34:40.188Z,28.00
2018-11-26T12:35:40.226Z,26.50
2018-11-26T12:36:40.255Z,26.60
2018-11-26T12:37:40.291Z,26.40
2018-11-26T12:38:40.329Z,26.80
2018-11-26T12:39:40.364Z,27.10
2018-11-26T12:40:40.400Z,27.80
2018-11-26T12:41:40.437Z,27.20
2018-11-26T12:42:40.474Z,27.80
2018-11-26T12:43:40.511Z,28.30
2018-11-26T12:44:40.559Z,29.90
2018-11-26T12:45:40.597Z,28.10
2018-11-26T12:46:40.626Z,27.80
2018-11-26T12:47:40.673Z,26.90
2018-11-26T12:48:40.698Z,27.90
2018-11-26T12:49:40.731Z,26.50
2018-11-26T12:50:40.874Z,26.50
2018-11-26T12:51:40.807Z,27.40
2018-11-26T12:52:40.844Z,25.60